createdAt,value
2017-07-05T00:02:17.389Z,9.77
2017-07-05T00:04:45.114Z,9.90
2017-07-05T00:07:12.585Z,8.70
2017-07-05T00:09:40.185Z,9.73
2017-07-05T00:12:08.428Z,11.03
2017-07-05T00:14:35.901Z,14.73
2017-07-05T00:17:03.409Z,10.87
2017-07-05T00:19:30.882Z,11.27
2017-07-05T00:21:58.352Z,8.93
2017-07-05T00:24:25.853Z,14.77
2017-07-05T00:26:54.101Z,11.70
2017-07-05T00:29:21.571Z,9.27
2017-07-05T00:31:49.065Z,16.20
2017-07-05T00:34:16.538Z,9.80
2017-07-05T00:36:44.014Z,13.73
2017-07-05T00:39:11.509Z,9.40
2017-07-05T00:41:39.750Z,9.00
2017-07-05T00:44:07.233Z,10.50
2017-07-05T00:46:34.725Z,10.03
2017-07-05T00:49:02.198Z,9.73
2017-07-05T00:51:29.669Z,9.20
2017-07-05T00:53:57.726Z,9.97
2017-07-05T00:56:25.205Z,11.73
2017-07-05T00:58:52.674Z,9.90
2017-07-05T01:01:20.172Z,15.63
2017-07-05T01:03:47.641Z,14.53
2017-07-05T01:06:15.113Z,9.07
2017-07-05T01:08:42.653Z,10.10
2017-07-05T01:11:10.203Z,25.13
2017-07-05T01:13:37.724Z,9.50
2017-07-05T01:16:05.218Z,14.90
2017-07-05T01:18:32.689Z,10.07
2017-07-05T01:21:00.162Z,22.90
2017-07-05T01:23:27.657Z,10.27
2017-07-05T01:25:55.137Z,10.03
2017-07-05T01:28:23.390Z,13.33
2017-07-05T01:30:50.886Z,12.13
2017-07-05T01:33:18.365Z,22.77
2017-07-05T01:35:45.838Z,11.73
2017-07-05T01:38:13.333Z,13.57
2017-07-05T01:40:41.857Z,15.77
2017-07-05T01:43:09.333Z,10.53
2017-07-05T01:45:36.867Z,11.17
2017-07-05T01:48:04.345Z,11.50
2017-07-05T01:50:31.881Z,12.37
2017-07-05T01:52:59.373Z,10.23
2017-07-05T01:55:26.849Z,10.93
2017-07-05T01:57:54.413Z,12.23
2017-07-05T02:00:22.674Z,10.30
2017-07-05T02:02:50.248Z,10.47
2017-07-05T02:05:18.494Z,12.47
2017-07-05T02:07:46.009Z,20.10
2017-07-05T02:10:13.485Z,17.33
2017-07-05T02:12:40.958Z,11.57
2017-07-05T02:15:08.453Z,17.03
2017-07-05T02:17:35.974Z,17.97
2017-07-05T02:20:03.448Z,18.10
2017-07-05T02:22:31.056Z,16.50
2017-07-05T02:24:58.533Z,11.73
2017-07-05T02:27:26.034Z,26.87
2017-07-05T02:29:53.530Z,10.73
2017-07-05T02:32:21.009Z,11.27
2017-07-05T02:34:48.485Z,9.83
2017-07-05T02:37:15.986Z,11.03
2017-07-05T02:39:44.224Z,11.40
2017-07-05T02:42:11.710Z,11.20
2017-07-05T02:44:39.970Z,12.70
2017-07-05T02:47:07.441Z,9.83
2017-07-05T02:49:35.682Z,9.07
2017-07-05T02:52:03.173Z,8.10
2017-07-05T02:54:31.408Z,14.30
2017-07-05T02:56:58.944Z,9.67
2017-07-05T02:59:26.574Z,9.90
2017-07-05T03:01:54.889Z,14.77
2017-07-05T03:04:22.447Z,11.53
2017-07-05T03:06:49.941Z,10.23
2017-07-05T03:09:17.413Z,9.90
2017-07-05T03:11:45.661Z,15.30
2017-07-05T03:14:13.153Z,10.23
2017-07-05T03:16:41.392Z,10.37
2017-07-05T03:19:08.865Z,11.27
2017-07-05T03:21:36.358Z,12.50
2017-07-05T03:24:03.825Z,9.47
2017-07-05T03:26:31.602Z,13.90
2017-07-05T03:28:59.101Z,10.20
2017-07-05T03:31:26.574Z,14.67
2017-07-05T03:33:54.822Z,16.47
2017-07-05T03:36:22.551Z,13.90
2017-07-05T03:38:50.025Z,11.77
2017-07-05T03:41:17.505Z,11.70
2017-07-05T03:43:45.005Z,22.33
2017-07-05T03:46:12.477Z,10.77
2017-07-05T03:48:39.952Z,10.00
2017-07-05T03:51:07.458Z,11.83
2017-07-05T03:53:35.701Z,20.63
2017-07-05T03:56:03.183Z,12.13
2017-07-05T03:58:31.709Z,10.77
2017-07-05T04:00:59.193Z,18.03
2017-07-05T04:03:26.665Z,10.03
2017-07-05T04:05:54.166Z,24.37
2017-07-05T04:08:21.645Z,10.83
2017-07-05T04:10:49.118Z,12.03
2017-07-05T04:13:16.609Z,10.53
2017-07-05T04:15:44.857Z,14.43
2017-07-05T04:18:12.325Z,9.57
2017-07-05T04:20:39.818Z,11.33
2017-07-05T04:23:07.293Z,10.80
2017-07-05T04:25:34.774Z,13.27
2017-07-05T04:28:02.270Z,10.73
2017-07-05T04:30:30.509Z,11.37
2017-07-05T04:32:58.002Z,14.87
2017-07-05T04:35:26.272Z,15.80
2017-07-05T04:37:54.516Z,15.43
2017-07-05T04:40:21.998Z,11.90
2017-07-05T04:42:49.496Z,11.53
2017-07-05T04:45:16.970Z,11.97
2017-07-05T04:47:44.450Z,15.10
2017-07-05T04:50:11.957Z,15.30
2017-07-05T04:52:39.437Z,20.27
2017-07-05T04:55:06.922Z,13.00
2017-07-05T04:57:34.417Z,29.90
2017-07-05T05:00:02.656Z,16.73
2017-07-05T05:02:30.393Z,14.10
2017-07-05T05:04:57.893Z,13.13
2017-07-05T05:07:25.373Z,13.60
2017-07-05T05:09:53.620Z,13.23
2017-07-05T05:12:21.129Z,17.43
2017-07-05T05:14:48.605Z,9.57
2017-07-05T05:17:16.077Z,11.50
2017-07-05T05:19:43.570Z,7.60
2017-07-05T05:22:11.812Z,10.70
2017-07-05T05:24:39.281Z,9.30
2017-07-05T05:27:07.578Z,7.07
2017-07-05T05:29:35.814Z,9.00
2017-07-05T05:32:03.285Z,7.23
2017-07-05T05:34:30.777Z,6.97
2017-07-05T05:36:58.250Z,7.80
2017-07-05T05:39:25.720Z,12.60
2017-07-05T05:41:53.230Z,9.83
2017-07-05T05:44:21.470Z,6.90
2017-07-05T05:46:48.945Z,11.53
2017-07-05T05:49:16.448Z,7.60
2017-07-05T05:51:43.921Z,6.47
2017-07-05T05:54:11.399Z,6.80
2017-07-05T05:56:38.893Z,10.20
2017-07-05T05:59:07.421Z,7.60
2017-07-05T06:01:34.896Z,20.43
2017-07-05T06:04:02.388Z,5.73
2017-07-05T06:06:30.630Z,6.70
2017-07-05T06:08:58.102Z,5.60
2017-07-05T06:11:25.614Z,8.50
2017-07-05T06:13:53.089Z,6.37
2017-07-05T06:16:20.563Z,4.47
2017-07-05T06:18:48.068Z,5.47
2017-07-05T06:21:15.553Z,7.53
2017-07-05T06:23:43.065Z,5.60
2017-07-05T06:26:11.325Z,17.47
2017-07-05T06:28:38.809Z,9.00
2017-07-05T06:31:07.048Z,5.60
2017-07-05T06:33:34.536Z,5.17
2017-07-05T06:36:02.774Z,7.13
2017-07-05T06:38:30.245Z,4.57
2017-07-05T06:40:57.740Z,4.93
2017-07-05T06:43:25.229Z,5.53
2017-07-05T06:45:52.705Z,5.23
2017-07-05T06:48:20.205Z,5.00
2017-07-05T06:50:48.445Z,4.97
2017-07-05T06:53:15.926Z,4.87
2017-07-05T06:55:44.181Z,5.00
2017-07-05T06:58:11.661Z,5.13
2017-07-05T07:00:39.909Z,4.60
2017-07-05T07:03:07.401Z,5.63
2017-07-05T07:05:35.638Z,4.90
2017-07-05T07:08:03.125Z,4.40
2017-07-05T07:10:31.608Z,4.63
2017-07-05T07:12:59.846Z,4.67
2017-07-05T07:15:27.321Z,5.57
2017-07-05T07:17:54.831Z,5.00
2017-07-05T07:20:22.311Z,4.43
2017-07-05T07:22:49.780Z,4.50
2017-07-05T07:25:17.517Z,4.70
2017-07-05T07:27:44.986Z,7.03
2017-07-05T07:30:12.459Z,5.20
2017-07-05T07:32:39.950Z,5.07
2017-07-05T07:35:08.190Z,5.10
2017-07-05T07:37:35.689Z,4.80
2017-07-05T07:40:03.946Z,5.17
2017-07-05T07:42:32.187Z,4.80
2017-07-05T07:44:59.660Z,6.17
2017-07-05T07:47:27.162Z,4.83
2017-07-05T07:49:54.950Z,4.90
2017-07-05T07:52:22.445Z,4.87
2017-07-05T07:54:50.393Z,4.67
2017-07-05T07:57:17.866Z,6.73
2017-07-05T07:59:45.349Z,4.20
2017-07-05T08:02:13.610Z,5.33
2017-07-05T08:04:41.082Z,4.97
2017-07-05T08:07:09.321Z,5.83
2017-07-05T08:09:36.813Z,4.60
2017-07-05T08:12:05.057Z,4.67
2017-07-05T08:14:34.154Z,4.33
2017-07-05T08:17:01.657Z,4.13
2017-07-05T08:19:29.146Z,4.60
2017-07-05T08:21:56.617Z,5.03
2017-07-05T08:24:24.124Z,5.73
2017-07-05T08:26:51.917Z,4.63
2017-07-05T08:29:19.389Z,4.80
2017-07-05T08:31:46.877Z,4.87
2017-07-05T08:34:14.350Z,5.50
2017-07-05T08:36:42.593Z,6.40
2017-07-05T08:39:10.084Z,6.70
2017-07-05T08:41:38.321Z,4.20
2017-07-05T08:44:05.793Z,4.50
2017-07-05T08:46:33.294Z,4.17
2017-07-05T08:49:00.822Z,4.00
2017-07-05T08:51:29.102Z,4.53
2017-07-05T08:53:57.362Z,4.27
2017-07-05T08:56:24.934Z,3.23
2017-07-05T08:58:53.173Z,4.50
2017-07-05T09:01:20.672Z,3.97
2017-07-05T09:03:48.909Z,4.67
2017-07-05T09:06:16.386Z,4.40
2017-07-05T09:08:43.877Z,4.43
2017-07-05T09:11:11.421Z,9.40
2017-07-05T09:13:38.976Z,3.90
2017-07-05T09:16:06.481Z,5.33
2017-07-05T09:18:33.990Z,5.00
2017-07-05T09:21:01.477Z,4.57
2017-07-05T09:23:28.974Z,4.70
2017-07-05T09:25:56.714Z,4.07
2017-07-05T09:28:24.185Z,13.20
2017-07-05T09:30:51.681Z,3.23
2017-07-05T09:33:19.917Z,4.43
2017-07-05T09:35:47.389Z,4.60
2017-07-05T09:38:14.885Z,7.83
2017-07-05T09:40:42.352Z,3.73
2017-07-05T09:43:09.825Z,4.33
2017-07-05T09:45:37.597Z,4.67
2017-07-05T09:48:05.081Z,4.40
2017-07-05T09:50:32.554Z,4.40
2017-07-05T09:53:00.049Z,3.57
2017-07-05T09:55:27.521Z,7.00
2017-07-05T09:57:54.993Z,4.53
2017-07-05T10:00:22.490Z,4.07
2017-07-05T10:02:50.728Z,3.67
2017-07-05T10:05:18.197Z,3.20
2017-07-05T10:07:45.690Z,5.93
2017-07-05T10:10:13.931Z,7.10
2017-07-05T10:12:41.401Z,3.07
2017-07-05T10:15:08.893Z,4.00
2017-07-05T10:17:36.365Z,4.27
2017-07-05T10:20:03.833Z,4.70
2017-07-05T10:22:31.335Z,5.00
2017-07-05T10:24:58.806Z,4.93
2017-07-05T10:27:27.045Z,3.10
2017-07-05T10:29:54.542Z,3.47
2017-07-05T10:32:22.789Z,3.23
2017-07-05T10:34:50.257Z,3.57
2017-07-05T10:37:17.748Z,3.20
2017-07-05T10:39:45.277Z,6.70
2017-07-05T10:42:12.750Z,3.57
2017-07-05T10:44:40.297Z,3.07
2017-07-05T10:47:08.535Z,5.53
2017-07-05T10:49:36.006Z,3.00
2017-07-05T10:52:03.500Z,3.20
2017-07-05T10:54:30.973Z,3.43
2017-07-05T10:56:58.444Z,2.97
2017-07-05T10:59:25.933Z,2.53
2017-07-05T11:01:53.417Z,3.30
2017-07-05T11:04:21.653Z,2.87
2017-07-05T11:06:49.345Z,4.13
2017-07-05T11:09:17.622Z,9.43
2017-07-05T11:11:45.862Z,11.00
2017-07-05T11:14:13.356Z,3.20
2017-07-05T11:16:41.593Z,3.60
2017-07-05T11:19:09.064Z,3.00
2017-07-05T11:21:36.554Z,3.40
2017-07-05T11:24:04.794Z,2.93
2017-07-05T11:26:32.275Z,3.80
2017-07-05T11:29:00.801Z,4.27
2017-07-05T11:31:28.273Z,4.50
2017-07-05T11:33:55.745Z,3.80
2017-07-05T11:36:23.241Z,4.50
2017-07-05T11:38:51.476Z,4.87
2017-07-05T11:41:18.949Z,8.10
2017-07-05T11:43:46.445Z,3.60
2017-07-05T11:46:13.918Z,3.97
2017-07-05T11:48:41.394Z,3.03
2017-07-05T11:51:08.893Z,3.67
2017-07-05T11:53:37.129Z,3.47
2017-07-05T11:56:04.605Z,3.40
2017-07-05T11:58:32.101Z,3.90
2017-07-05T12:00:59.574Z,3.33
2017-07-05T12:03:27.050Z,4.00
2017-07-05T12:05:54.541Z,3.57
2017-07-05T12:08:22.017Z,12.00
2017-07-05T12:10:50.254Z,3.00
2017-07-05T12:13:17.752Z,3.57
2017-07-05T12:15:45.229Z,7.60
2017-07-05T12:18:12.705Z,5.23
2017-07-05T12:20:40.197Z,3.17
2017-07-05T12:23:07.665Z,4.10
2017-07-05T12:25:35.998Z,3.30
2017-07-05T12:28:03.521Z,4.90
2017-07-05T12:30:30.990Z,3.43
2017-07-05T12:32:58.469Z,3.30
2017-07-05T12:35:26.225Z,3.47
2017-07-05T12:37:53.698Z,12.20
2017-07-05T12:40:21.169Z,3.63
2017-07-05T12:42:48.667Z,5.80
2017-07-05T12:45:16.139Z,3.23
2017-07-05T12:47:43.612Z,4.10
2017-07-05T12:50:11.101Z,4.53
2017-07-05T12:52:38.569Z,3.17
2017-07-05T12:55:06.041Z,4.00
2017-07-05T12:57:34.973Z,9.10
2017-07-05T13:00:02.445Z,3.40
2017-07-05T13:02:29.917Z,3.67
2017-07-05T13:04:57.649Z,6.20
2017-07-05T13:07:25.125Z,3.50
2017-07-05T13:09:52.598Z,3.20
2017-07-05T13:12:20.089Z,4.00
2017-07-05T13:14:47.562Z,4.97
2017-07-05T13:17:15.033Z,3.00
2017-07-05T13:19:42.529Z,3.87
2017-07-05T13:22:10.105Z,4.50
2017-07-05T13:24:38.341Z,6.93
2017-07-05T13:27:05.849Z,3.43
2017-07-05T13:29:34.089Z,6.57
2017-07-05T13:32:01.560Z,11.23
2017-07-05T13:34:29.066Z,3.73
2017-07-05T13:36:56.537Z,3.67
2017-07-05T13:39:24.010Z,3.83
2017-07-05T13:41:51.502Z,4.40
2017-07-05T13:44:18.988Z,6.10
2017-07-05T13:46:46.458Z,6.97
2017-07-05T13:49:13.953Z,4.30
2017-07-05T13:51:41.422Z,3.67
2017-07-05T13:54:09.701Z,3.20
2017-07-05T13:56:37.965Z,3.03
2017-07-05T13:59:05.529Z,3.17
2017-07-05T14:01:32.998Z,6.83
2017-07-05T14:04:01.266Z,3.73
2017-07-05T14:06:29.796Z,3.87
2017-07-05T14:08:57.266Z,3.80
2017-07-05T14:11:24.774Z,6.80
2017-07-05T14:13:53.010Z,3.83
2017-07-05T14:16:20.485Z,6.40
2017-07-05T14:18:47.977Z,2.93
2017-07-05T14:21:15.513Z,7.83
2017-07-05T14:23:43.756Z,3.77
2017-07-05T14:26:11.251Z,3.47
2017-07-05T14:28:39.493Z,3.53
2017-07-05T14:31:06.970Z,4.23
2017-07-05T14:33:34.466Z,2.90
2017-07-05T14:36:02.245Z,3.13
2017-07-05T14:38:29.718Z,3.03
2017-07-05T14:40:57.213Z,4.37
2017-07-05T14:43:25.449Z,3.37
2017-07-05T14:45:52.921Z,4.93
2017-07-05T14:48:20.421Z,2.73
2017-07-05T14:50:47.894Z,3.10
2017-07-05T14:53:15.364Z,3.00
2017-07-05T14:55:42.864Z,3.53
2017-07-05T14:58:10.341Z,3.40
2017-07-05T15:00:38.581Z,5.93
2017-07-05T15:03:06.306Z,3.53
2017-07-05T15:05:33.781Z,4.30
2017-07-05T15:08:01.281Z,3.10
2017-07-05T15:10:29.763Z,2.70
2017-07-05T15:12:58.103Z,4.47
2017-07-05T15:15:25.645Z,3.43
2017-07-05T15:17:53.845Z,6.40
2017-07-05T15:20:21.313Z,3.37
2017-07-05T15:22:48.791Z,6.83
2017-07-05T15:25:17.045Z,2.83
2017-07-05T15:27:44.523Z,3.40
2017-07-05T15:30:12.762Z,3.40
2017-07-05T15:32:40.255Z,5.93
2017-07-05T15:35:08.573Z,3.47
2017-07-05T15:37:36.338Z,3.67
2017-07-05T15:40:03.829Z,3.30
2017-07-05T15:42:31.316Z,3.07
2017-07-05T15:44:59.554Z,3.27
2017-07-05T15:47:27.062Z,3.47
2017-07-05T15:49:54.533Z,3.53
2017-07-05T15:52:22.001Z,3.63
2017-07-05T15:54:49.492Z,3.53
2017-07-05T15:57:16.970Z,3.23
2017-07-05T15:59:45.210Z,3.87
2017-07-05T16:02:12.705Z,3.83
2017-07-05T16:04:40.946Z,4.63
2017-07-05T16:07:08.441Z,3.93
2017-07-05T16:09:36.881Z,3.33
2017-07-05T16:12:04.366Z,3.93
2017-07-05T16:14:32.605Z,3.57
2017-07-05T16:17:00.096Z,4.13
2017-07-05T16:19:27.568Z,5.13
2017-07-05T16:21:55.132Z,3.57
2017-07-05T16:24:22.708Z,3.17
2017-07-05T16:26:50.218Z,3.60
2017-07-05T16:29:17.714Z,3.77
2017-07-05T16:31:45.229Z,3.73
2017-07-05T16:34:13.550Z,4.43
2017-07-05T16:36:41.602Z,4.13
2017-07-05T16:39:09.160Z,3.77
2017-07-05T16:41:38.402Z,4.40
2017-07-05T16:44:05.934Z,3.77
2017-07-05T16:46:33.453Z,3.97
2017-07-05T16:49:01.716Z,5.33
2017-07-05T16:51:29.237Z,4.93
2017-07-05T16:53:56.806Z,4.37
2017-07-05T16:56:24.325Z,4.70
2017-07-05T16:58:52.600Z,4.63
2017-07-05T17:01:20.858Z,4.23
2017-07-05T17:03:48.426Z,4.80
2017-07-05T17:06:16.665Z,3.90
2017-07-05T17:08:44.157Z,4.03
2017-07-05T17:11:12.393Z,4.97
2017-07-05T17:13:39.879Z,3.87
2017-07-05T17:16:07.446Z,4.90
2017-07-05T17:18:36.074Z,4.77
2017-07-05T17:21:03.549Z,3.70
2017-07-05T17:23:31.041Z,8.43
2017-07-05T17:25:58.537Z,4.80
2017-07-05T17:28:26.008Z,4.50
2017-07-05T17:30:53.501Z,4.77
2017-07-05T17:33:20.973Z,4.20
2017-07-05T17:35:49.504Z,4.23
2017-07-05T17:38:17.014Z,3.90
2017-07-05T17:40:45.255Z,4.10
2017-07-05T17:43:12.732Z,8.63
2017-07-05T17:45:40.230Z,4.83
2017-07-05T17:48:07.731Z,4.23
2017-07-05T17:50:35.210Z,5.37
2017-07-05T17:53:02.706Z,4.50
2017-07-05T17:55:30.486Z,4.40
2017-07-05T17:57:58.249Z,4.40
2017-07-05T18:00:25.742Z,4.90
2017-07-05T18:02:53.214Z,5.87
2017-07-05T18:05:21.453Z,5.23
2017-07-05T18:07:48.946Z,4.80
2017-07-05T18:10:17.397Z,4.93
2017-07-05T18:12:44.873Z,4.63
2017-07-05T18:15:12.365Z,4.57
2017-07-05T18:17:39.838Z,4.70
2017-07-05T18:20:07.312Z,8.23
2017-07-05T18:22:34.877Z,5.83
2017-07-05T18:25:02.365Z,4.73
2017-07-05T18:27:29.851Z,4.57
2017-07-05T18:29:57.381Z,4.40
2017-07-05T18:32:24.902Z,4.93
2017-07-05T18:34:52.389Z,5.10
2017-07-05T18:37:19.889Z,7.00
2017-07-05T18:39:47.362Z,5.40
2017-07-05T18:42:14.869Z,9.20
2017-07-05T18:44:43.137Z,6.23
2017-07-05T18:47:10.767Z,6.23
2017-07-05T18:49:38.246Z,5.43
2017-07-05T18:52:05.754Z,5.00
2017-07-05T18:54:33.235Z,7.80
2017-07-05T18:57:00.709Z,8.00
2017-07-05T18:59:28.270Z,12.50
2017-07-05T19:01:55.750Z,4.87
2017-07-05T19:04:23.318Z,9.57
2017-07-05T19:06:51.630Z,15.43
2017-07-05T19:09:19.106Z,5.80
2017-07-05T19:11:46.576Z,5.80
2017-07-05T19:14:14.065Z,6.10
2017-07-05T19:16:42.306Z,5.13
2017-07-05T19:19:09.778Z,12.00
2017-07-05T19:21:37.274Z,9.03
2017-07-05T19:24:04.746Z,5.87
2017-07-05T19:26:32.224Z,5.87
2017-07-05T19:28:59.717Z,6.60
2017-07-05T19:31:27.433Z,5.97
2017-07-05T19:33:55.192Z,5.57
2017-07-05T19:36:22.691Z,6.87
2017-07-05T19:38:50.177Z,6.10
2017-07-05T19:41:17.649Z,6.50
2017-07-05T19:43:45.146Z,6.63
2017-07-05T19:46:12.618Z,12.50
2017-07-05T19:48:40.090Z,5.43
2017-07-05T19:51:08.357Z,7.23
2017-07-05T19:53:35.829Z,6.90
2017-07-05T19:56:04.067Z,7.20
2017-07-05T19:58:31.566Z,8.00
2017-07-05T20:00:59.807Z,6.60
2017-07-05T20:03:28.078Z,14.97
2017-07-05T20:05:55.569Z,10.80
2017-07-05T20:08:23.806Z,9.83
2017-07-05T20:10:51.278Z,6.90
2017-07-05T20:13:18.770Z,6.63
2017-07-05T20:15:46.241Z,8.50
2017-07-05T20:18:13.713Z,7.13
2017-07-05T20:20:41.205Z,7.60
2017-07-05T20:23:08.685Z,7.40
2017-07-05T20:25:36.921Z,7.40
2017-07-05T20:28:04.412Z,8.07
2017-07-05T20:30:32.649Z,6.87
2017-07-05T20:33:00.121Z,14.77
2017-07-05T20:35:27.618Z,10.63
2017-07-05T20:37:55.091Z,8.37
2017-07-05T20:40:22.573Z,6.67
2017-07-05T20:42:50.092Z,7.50
2017-07-05T20:45:17.570Z,8.43
2017-07-05T20:47:45.045Z,7.23
2017-07-05T20:50:12.537Z,7.57
2017-07-05T20:52:40.784Z,6.47
2017-07-05T20:55:08.257Z,9.43
2017-07-05T20:57:35.749Z,8.33
2017-07-05T21:00:03.224Z,20.23
2017-07-05T21:02:30.700Z,7.20
2017-07-05T21:04:58.207Z,16.13
2017-07-05T21:07:26.483Z,8.27
2017-07-05T21:09:54.721Z,7.57
2017-07-05T21:12:22.213Z,7.90
2017-07-05T21:14:50.453Z,9.33
2017-07-05T21:17:17.920Z,9.47
2017-07-05T21:19:45.429Z,7.07
2017-07-05T21:22:12.901Z,7.90
2017-07-05T21:24:40.374Z,11.03
2017-07-05T21:27:07.865Z,9.80
2017-07-05T21:29:35.337Z,6.60
2017-07-05T21:32:03.581Z,6.90
2017-07-05T21:34:31.075Z,6.57
2017-07-05T21:36:58.546Z,7.30
2017-07-05T21:39:26.021Z,7.30
2017-07-05T21:41:53.789Z,7.57
2017-07-05T21:44:21.260Z,7.07
2017-07-05T21:46:48.730Z,6.87
2017-07-05T21:49:16.221Z,8.63
2017-07-05T21:51:44.461Z,10.77
2017-07-05T21:54:13.528Z,7.03
2017-07-05T21:56:41.844Z,7.17
2017-07-05T21:59:09.318Z,7.37
2017-07-05T22:01:37.559Z,7.80
2017-07-05T22:04:05.458Z,7.93
2017-07-05T22:06:33.701Z,8.20
2017-07-05T22:09:01.170Z,8.13
2017-07-05T22:11:28.665Z,7.00
2017-07-05T22:13:56.198Z,7.50
2017-07-05T22:16:24.438Z,7.63
2017-07-05T22:18:51.934Z,6.83
2017-07-05T22:21:20.180Z,9.70
2017-07-05T22:23:47.649Z,8.77
2017-07-05T22:26:15.141Z,10.23
2017-07-05T22:28:42.614Z,7.50
2017-07-05T22:31:10.805Z,7.70
2017-07-05T22:33:38.301Z,9.40
2017-07-05T22:36:05.774Z,8.07
2017-07-05T22:38:34.017Z,11.73
2017-07-05T22:41:01.526Z,9.50
2017-07-05T22:43:29.009Z,9.60
2017-07-05T22:45:56.485Z,7.73
2017-07-05T22:48:23.974Z,8.63
2017-07-05T22:50:52.216Z,10.00
2017-07-05T22:53:19.686Z,8.40
2017-07-05T22:55:47.181Z,7.60
2017-07-05T22:58:14.650Z,8.73
2017-07-05T23:00:42.135Z,7.83
2017-07-05T23:03:09.627Z,8.50
2017-07-05T23:05:38.078Z,8.00
2017-07-05T23:08:05.549Z,8.60
2017-07-05T23:10:33.840Z,10.17
2017-07-05T23:13:02.079Z,8.90
2017-07-05T23:15:29.553Z,8.47
2017-07-05T23:17:57.058Z,8.10
2017-07-05T23:20:24.533Z,9.50
2017-07-05T23:22:52.005Z,9.00
2017-07-05T23:25:19.498Z,11.73
2017-07-05T23:27:47.742Z,8.03
2017-07-05T23:30:15.218Z,8.30
2017-07-05T23:32:42.719Z,22.83
2017-07-05T23:35:10.198Z,10.43
2017-07-05T23:37:37.689Z,18.00
2017-07-05T23:40:05.178Z,12.50
2017-07-05T23:42:32.721Z,8.63
2017-07-05T23:45:00.961Z,18.03
2017-07-05T23:47:28.672Z,10.13
2017-07-05T23:49:56.914Z,18.23
2017-07-05T23:52:24.397Z,10.30
2017-07-05T23:54:52.666Z,9.90
2017-07-05T23:57:20.905Z,10.87
2017-07-05T23:59:48.377Z,13.40
